Time;durP1;ratioP1;P1;durP2;ratioP2;P2;SDS_P1;SDS_P2;PMS_P1;PMS_P2;Temp;Humidity;BMP_temperature;BMP_pressure;BME280_temperature;BME280_humidity;BME280_pressure;Samples;Min_cycle;Max_cycle;Signal;HPM_P1;HPM_P2
2022/03/31 00:00:33;;;;;;;1.10;0.40;;;6.20;43.10;;;;;;5070341;28;20289;-41
2022/03/31 00:03:01;;;;;;;0.50;0.50;;;6.20;43.10;;;;;;5069377;28;20204;-44
2022/03/31 00:05:28;;;;;;;0.40;0.40;;;6.20;43.10;;;;;;5070184;28;20235;-46
2022/03/31 00:07:57;;;;;;;0.63;0.43;;;6.20;43.20;;;;;;5068810;28;20216;-49
2022/03/31 00:10:45;;;;;;;0.50;0.40;;;6.10;43.30;;;;;;5067458;28;20247;-44
2022/03/31 00:13:14;;;;;;;0.63;0.47;;;6.20;43.50;;;;;;5064150;28;20193;-46
2022/03/31 00:15:43;;;;;;;0.73;0.60;;;6.10;43.50;;;;;;5069849;28;20727;-44
2022/03/31 00:18:12;;;;;;;1.23;0.50;;;6.10;43.60;;;;;;5067757;28;20291;-43
2022/03/31 00:20:39;;;;;;;0.60;0.60;;;6.10;43.50;;;;;;5069967;28;20573;-41
2022/03/31 00:23:07;;;;;;;0.70;0.60;;;6.10;43.50;;;;;;5070520;28;20664;-44
2022/03/31 00:25:34;;;;;;;0.57;0.57;;;6.10;43.50;;;;;;5065863;28;20216;-44
2022/03/31 00:28:03;;;;;;;0.50;0.50;;;6.20;43.60;;;;;;5070331;28;20193;-46
2022/03/31 00:30:32;;;;;;;0.70;0.57;;;6.20;43.50;;;;;;5067693;28;20221;-42
2022/03/31 00:33:01;;;;;;;0.57;0.40;;;6.20;43.40;;;;;;5058517;28;20201;-45
2022/03/31 00:35:29;;;;;;;1.17;0.40;;;6.10;43.40;;;;;;5070109;28;20213;-43
2022/03/31 00:37:56;;;;;;;0.30;0.30;;;6.10;43.50;;;;;;5068945;28;20223;-43
2022/03/31 00:40:24;;;;;;;0.40;0.40;;;6.10;43.50;;;;;;5069598;28;20189;-43
2022/03/31 00:42:54;;;;;;;0.63;0.30;;;6.10;43.50;;;;;;5061438;28;20216;-42
2022/03/31 00:45:23;;;;;;;0.20;0.20;;;6.10;43.60;;;;;;5069836;28;20198;-43
2022/03/31 00:47:51;;;;;;;0.27;0.27;;;6.10;43.40;;;;;;5060680;28;20228;-42
2022/03/31 00:50:20;;;;;;;0.30;0.30;;;6.00;43.50;;;;;;5069536;28;20208;-44
2022/03/31 00:52:47;;;;;;;0.60;0.40;;;6.00;43.50;;;;;;5070060;28;20195;-46
2022/03/31 00:55:18;;;;;;;0.30;0.30;;;5.90;43.40;;;;;;5070213;28;20583;-48
2022/03/31 00:57:46;;;;;;;0.30;0.30;;;6.00;43.50;;;;;;5069189;28;20211;-48
2022/03/31 01:00:14;;;;;;;0.40;0.40;;;6.00;43.50;;;;;;5068721;28;20205;-45
2022/03/31 01:02:43;;;;;;;0.37;0.37;;;6.00;43.50;;;;;;5067887;28;20189;-44
2022/03/31 01:05:11;;;;;;;0.30;0.20;;;6.00;43.50;;;;;;5068613;28;20692;-50
2022/03/31 01:07:40;;;;;;;1.23;0.40;;;5.90;43.50;;;;;;5069600;28;20193;-48
2022/03/31 01:10:10;;;;;;;0.30;0.30;;;5.90;43.50;;;;;;5069620;28;20204;-48
2022/03/31 01:12:38;;;;;;;0.60;0.40;;;5.80;44.20;;;;;;5062157;28;20246;-42
2022/03/31 01:15:07;;;;;;;0.30;0.30;;;5.80;43.60;;;;;;5068423;28;20245;-45
2022/03/31 01:17:34;;;;;;;0.30;0.30;;;5.80;43.60;;;;;;5057830;28;20661;-43
2022/03/31 01:20:02;;;;;;;0.40;0.40;;;5.80;43.60;;;;;;5068249;28;20220;-43
2022/03/31 01:22:32;;;;;;;0.50;0.30;;;5.80;43.60;;;;;;5069628;28;20276;-43
2022/03/31 01:25:02;;;;;;;0.20;0.20;;;5.70;43.60;;;;;;5069906;28;20200;-42
2022/03/31 01:27:30;;;;;;;0.30;0.30;;;5.80;43.80;;;;;;5069668;28;20443;-43
2022/03/31 01:29:57;;;;;;;0.30;0.30;;;5.70;43.70;;;;;;5069972;28;20580;-41
2022/03/31 01:32:24;;;;;;;0.30;0.30;;;5.80;43.80;;;;;;5069708;28;20225;-42
2022/03/31 01:34:51;;;;;;;0.20;0.20;;;5.80;43.80;;;;;;5067110;28;20205;-42
2022/03/31 01:37:19;;;;;;;0.40;0.40;;;5.80;43.80;;;;;;5062087;28;20289;-43
2022/03/31 01:39:46;;;;;;;0.37;0.37;;;5.80;43.70;;;;;;5060768;28;20213;-42
2022/03/31 01:42:14;;;;;;;0.60;0.40;;;5.80;43.70;;;;;;5069675;28;20193;-44
2022/03/31 01:44:41;;;;;;;1.50;0.40;;;5.80;43.60;;;;;;5060949;28;20197;-44
2022/03/31 01:47:09;;;;;;;0.30;0.30;;;5.80;43.50;;;;;;5061135;28;20190;-42
2022/03/31 01:49:38;;;;;;;0.30;0.30;;;5.80;43.50;;;;;;5067538;28;20193;-43
2022/03/31 01:52:06;;;;;;;0.40;0.40;;;5.80;43.40;;;;;;5069219;28;20203;-46
2022/03/31 01:54:34;;;;;;;0.27;0.23;;;5.80;43.20;;;;;;5069317;28;20240;-44
2022/03/31 01:57:01;;;;;;;0.27;0.27;;;5.80;43.10;;;;;;5068970;28;20201;-44
2022/03/31 01:59:35;;;;;;;0.30;0.30;;;5.80;43.10;;;;;;5069872;28;20640;-46
2022/03/31 02:02:02;;;;;;;0.30;0.30;;;5.80;43.10;;;;;;5072432;28;20197;-42
2022/03/31 02:04:30;;;;;;;0.40;0.40;;;5.70;43.00;;;;;;5071947;28;20311;-49
2022/03/31 02:06:57;;;;;;;0.23;0.23;;;5.70;42.90;;;;;;5072426;28;20205;-42
2022/03/31 02:09:25;;;;;;;0.30;0.30;;;5.70;42.90;;;;;;5059986;28;20385;-42
2022/03/31 02:11:52;;;;;;;0.20;0.20;;;5.70;42.90;;;;;;5073040;28;20661;-45
2022/03/31 02:14:20;;;;;;;0.20;0.20;;;5.70;43.00;;;;;;5072433;28;20692;-45
2022/03/31 02:16:49;;;;;;;0.30;0.30;;;5.60;42.80;;;;;;5068206;28;20194;-46
2022/03/31 02:19:16;;;;;;;0.30;0.30;;;5.70;42.90;;;;;;5063290;28;20292;-44
2022/03/31 02:21:44;;;;;;;0.50;0.40;;;5.70;42.90;;;;;;5072300;28;20548;-45
2022/03/31 02:24:11;;;;;;;0.30;0.30;;;5.70;42.90;;;;;;5072467;28;20193;-44
2022/03/31 02:26:38;;;;;;;0.40;0.40;;;5.70;42.90;;;;;;5067072;28;20584;-45
2022/03/31 02:29:06;;;;;;;0.30;0.30;;;5.70;42.80;;;;;;5067203;28;20585;-46
2022/03/31 02:31:33;;;;;;;0.90;0.27;;;5.70;42.90;;;;;;5063613;28;20205;-44
2022/03/31 02:34:02;;;;;;;0.20;0.20;;;5.60;42.90;;;;;;5059080;28;20686;-43
2022/03/31 02:36:30;;;;;;;0.27;0.27;;;5.70;43.00;;;;;;5070435;28;20185;-45
2022/03/31 02:38:58;;;;;;;0.30;0.30;;;5.60;43.00;;;;;;5071884;28;20270;-45
2022/03/31 02:41:25;;;;;;;0.40;0.30;;;5.70;43.10;;;;;;5072440;28;20197;-44
2022/03/31 02:43:53;;;;;;;0.30;0.30;;;5.60;43.00;;;;;;5072393;28;20199;-43
2022/03/31 02:46:20;;;;;;;0.30;0.30;;;5.70;43.10;;;;;;5071598;28;20235;-45
2022/03/31 02:48:47;;;;;;;0.60;0.40;;;5.60;43.00;;;;;;5062427;28;20213;-45
2022/03/31 02:51:16;;;;;;;0.43;0.37;;;5.70;43.10;;;;;;5070505;28;20209;-43
2022/03/31 02:56:29;;;;;;;0.40;0.40;;;5.70;43.10;;;;;;5072561;28;20197;-46
2022/03/31 02:58:57;;;;;;;0.70;0.50;;;5.70;43.10;;;;;;5071828;28;20223;-48
2022/03/31 03:01:24;;;;;;;0.67;0.60;;;5.60;43.10;;;;;;5071502;28;20652;-45
2022/03/31 03:03:51;;;;;;;1.63;0.83;;;5.60;43.20;;;;;;5070633;28;20208;-43
2022/03/31 03:06:20;;;;;;;2.10;0.60;;;5.60;43.30;;;;;;5071477;28;20664;-47
2022/03/31 03:08:47;;;;;;;0.50;0.50;;;5.60;43.40;;;;;;5068221;28;20189;-42
2022/03/31 03:11:17;;;;;;;1.13;0.60;;;5.60;43.40;;;;;;5067160;28;20289;-42
2022/03/31 03:13:44;;;;;;;0.70;0.63;;;5.60;43.60;;;;;;5062570;28;20196;-43
2022/03/31 03:16:12;;;;;;;0.50;0.50;;;5.60;43.60;;;;;;5067374;28;20552;-43
2022/03/31 03:18:40;;;;;;;1.43;0.70;;;5.50;43.60;;;;;;5064319;28;20271;-44
2022/03/31 03:21:08;;;;;;;0.43;0.43;;;5.50;43.60;;;;;;5066221;28;20649;-44
2022/03/31 03:23:38;;;;;;;0.60;0.60;;;5.50;43.60;;;;;;5071599;28;20244;-45
2022/03/31 03:26:06;;;;;;;1.43;0.60;;;5.50;43.60;;;;;;5071600;28;20840;-44
2022/03/31 03:28:36;;;;;;;3.23;0.70;;;5.50;43.60;;;;;;5063748;28;20193;-42
2022/03/31 03:31:03;;;;;;;0.83;0.67;;;5.50;43.50;;;;;;5071104;28;20201;-46
2022/03/31 03:33:31;;;;;;;0.83;0.63;;;5.50;43.40;;;;;;5063302;28;20197;-48
2022/03/31 03:35:59;;;;;;;0.40;0.40;;;5.50;43.40;;;;;;5064363;28;20185;-43
2022/03/31 03:38:27;;;;;;;0.50;0.50;;;5.50;43.30;;;;;;5064499;28;20199;-47
2022/03/31 03:40:56;;;;;;;1.33;0.60;;;5.50;43.40;;;;;;5070915;28;20193;-44
2022/03/31 03:43:23;;;;;;;0.73;0.63;;;5.50;43.30;;;;;;5070954;28;20227;-42
2022/03/31 03:45:50;;;;;;;2.07;0.70;;;5.50;43.20;;;;;;5070655;28;20653;-42
2022/03/31 03:48:17;;;;;;;0.63;0.60;;;5.50;43.10;;;;;;5067286;28;20198;-45
2022/03/31 03:50:44;;;;;;;2.23;0.60;;;5.50;43.10;;;;;;5058058;28;20208;-46
2022/03/31 03:53:11;;;;;;;0.60;0.47;;;5.60;43.00;;;;;;5070294;28;20197;-43
2022/03/31 03:55:39;;;;;;;1.00;0.50;;;5.50;42.70;;;;;;5068564;28;20216;-47
2022/03/31 03:58:08;;;;;;;0.50;0.50;;;5.50;42.80;;;;;;5069402;28;20255;-47
2022/03/31 04:00:35;;;;;;;1.30;0.57;;;5.50;42.70;;;;;;5070714;28;20255;-44
2022/03/31 04:03:02;;;;;;;0.67;0.40;;;5.50;42.70;;;;;;5069347;28;20189;-46
2022/03/31 04:05:29;;;;;;;2.63;0.50;;;5.50;42.70;;;;;;5057204;28;20197;-42
2022/03/31 04:07:56;;;;;;;3.47;0.60;;;5.40;42.70;;;;;;5066321;28;20209;-44
2022/03/31 04:10:24;;;;;;;1.20;0.50;;;5.40;42.60;;;;;;5057015;28;20181;-44
2022/03/31 04:12:51;;;;;;;0.77;0.40;;;5.40;42.60;;;;;;5070207;28;20200;-44
2022/03/31 04:15:19;;;;;;;0.60;0.50;;;5.50;42.50;;;;;;5070700;28;20235;-46
2022/03/31 04:17:47;;;;;;;0.80;0.63;;;5.40;42.50;;;;;;5057305;28;20225;-47
2022/03/31 04:20:14;;;;;;;0.60;0.47;;;5.40;42.40;;;;;;5068669;28;20281;-51
2022/03/31 04:22:42;;;;;;;0.57;0.50;;;5.40;42.40;;;;;;5068257;28;20258;-50
2022/03/31 04:25:10;;;;;;;0.50;0.50;;;5.40;42.40;;;;;;5069939;28;20188;-50
2022/03/31 04:27:39;;;;;;;1.00;0.50;;;5.50;43.10;;;;;;5063768;28;20233;-46
2022/03/31 04:30:08;;;;;;;2.53;0.40;;;5.40;42.40;;;;;;5066700;28;20193;-49
2022/03/31 04:32:38;;;;;;;0.30;0.30;;;5.50;42.30;;;;;;5066067;28;20201;-47
2022/03/31 04:35:06;;;;;;;0.50;0.50;;;5.50;42.30;;;;;;5060058;28;20205;-48
2022/03/31 04:37:34;;;;;;;0.57;0.50;;;5.50;42.30;;;;;;5066218;28;20201;-45
2022/03/31 04:40:02;;;;;;;0.53;0.47;;;5.50;42.30;;;;;;5068313;28;20227;-47
2022/03/31 04:42:30;;;;;;;1.10;0.70;;;5.40;42.40;;;;;;5068251;28;20292;-44
2022/03/31 04:44:57;;;;;;;0.60;0.60;;;5.50;42.50;;;;;;5058033;28;20512;-44
2022/03/31 04:47:24;;;;;;;0.63;0.60;;;5.40;42.60;;;;;;5064723;28;20197;-44
2022/03/31 04:49:53;;;;;;;0.73;0.67;;;5.40;42.70;;;;;;5066042;28;20189;-45
2022/03/31 04:52:20;;;;;;;0.50;0.50;;;5.40;42.80;;;;;;5069949;28;20283;-43
2022/03/31 04:54:47;;;;;;;0.87;0.70;;;5.40;42.90;;;;;;5068349;28;20204;-42
2022/03/31 04:57:16;;;;;;;0.80;0.80;;;5.40;43.00;;;;;;5069689;28;20220;-42
2022/03/31 04:59:44;;;;;;;0.83;0.83;;;5.40;43.10;;;;;;5068895;28;20220;-48
2022/03/31 05:02:12;;;;;;;0.70;0.70;;;5.50;43.10;;;;;;5057039;28;20205;-45
2022/03/31 05:04:39;;;;;;;1.17;1.07;;;5.50;43.10;;;;;;5065295;28;20231;-41
2022/03/31 05:07:08;;;;;;;0.87;0.87;;;5.50;43.00;;;;;;5068609;28;20232;-41
2022/03/31 05:09:35;;;;;;;0.57;0.57;;;5.50;43.10;;;;;;5067292;28;20372;-43
2022/03/31 05:12:02;;;;;;;0.90;0.90;;;5.60;43.20;;;;;;5063875;28;20262;-42
2022/03/31 05:14:30;;;;;;;2.23;1.10;;;5.60;43.20;;;;;;5067592;28;20235;-43
2022/03/31 05:16:58;;;;;;;1.03;0.93;;;5.60;43.20;;;;;;5063553;28;20573;-43
2022/03/31 05:19:25;;;;;;;0.80;0.80;;;5.60;43.30;;;;;;5062581;28;20304;-43
2022/03/31 05:21:52;;;;;;;0.93;0.90;;;5.70;43.20;;;;;;5058994;28;20224;-42
2022/03/31 05:24:21;;;;;;;1.90;0.97;;;5.80;43.30;;;;;;5068179;28;20587;-43
2022/03/31 05:26:49;;;;;;;0.90;0.80;;;5.80;43.30;;;;;;5060625;28;20200;-44
2022/03/31 05:29:16;;;;;;;1.43;0.93;;;5.80;43.20;;;;;;5067690;28;20189;-43
2022/03/31 05:31:43;;;;;;;1.77;1.00;;;5.80;43.20;;;;;;5067001;28;20322;-43
2022/03/31 05:34:10;;;;;;;0.70;0.70;;;5.90;43.30;;;;;;5066138;28;20203;-45
2022/03/31 05:36:37;;;;;;;2.10;0.70;;;5.90;43.30;;;;;;5070909;28;20200;-49
2022/03/31 05:39:05;;;;;;;0.67;0.67;;;5.90;43.30;;;;;;5069810;28;20189;-46
2022/03/31 05:41:33;;;;;;;1.47;0.90;;;5.90;43.30;;;;;;5065841;28;20211;-43
2022/03/31 05:44:02;;;;;;;0.80;0.80;;;5.90;43.20;;;;;;5070876;28;20548;-50
2022/03/31 05:46:29;;;;;;;0.90;0.80;;;5.90;43.10;;;;;;5070546;28;20205;-48
2022/03/31 05:48:57;;;;;;;0.60;0.60;;;5.90;43.00;;;;;;5070314;28;20204;-48
2022/03/31 05:51:24;;;;;;;1.00;0.90;;;6.00;43.00;;;;;;5070899;28;20193;-41
2022/03/31 05:53:51;;;;;;;2.23;0.80;;;6.00;43.20;;;;;;5072026;28;20258;-43
2022/03/31 05:56:19;;;;;;;0.77;0.67;;;6.00;43.20;;;;;;5071252;28;20548;-44
2022/03/31 05:58:47;;;;;;;2.00;0.70;;;6.00;43.20;;;;;;5059940;28;20196;-44
2022/03/31 06:01:15;;;;;;;0.70;0.70;;;6.00;43.20;;;;;;5070234;28;20221;-48
2022/03/31 06:03:42;;;;;;;4.43;0.70;;;6.10;43.20;;;;;;5057589;28;20216;-50
2022/03/31 06:06:10;;;;;;;2.07;1.10;;;6.10;43.10;;;;;;5071540;28;20220;-51
2022/03/31 06:08:37;;;;;;;3.00;1.47;;;6.10;43.10;;;;;;5071423;28;20197;-46
2022/03/31 06:11:04;;;;;;;1.27;1.00;;;6.10;43.00;;;;;;5070186;28;20202;-48
2022/03/31 06:13:31;;;;;;;2.00;0.90;;;6.10;42.60;;;;;;5071538;28;20200;-45
2022/03/31 06:16:01;;;;;;;2.87;1.07;;;6.20;42.60;;;;;;5070548;28;20529;-52
2022/03/31 06:18:28;;;;;;;2.80;1.20;;;6.20;42.70;;;;;;5062584;28;20200;-50
2022/03/31 06:20:55;;;;;;;1.70;1.57;;;6.20;42.60;;;;;;5068983;28;20217;-46
2022/03/31 06:23:23;;;;;;;1.27;1.17;;;6.30;42.10;;;;;;5070611;28;20250;-46
2022/03/31 06:25:52;;;;;;;1.57;1.00;;;6.30;41.80;;;;;;5070709;28;20683;-48
2022/03/31 06:28:19;;;;;;;2.33;0.80;;;6.40;41.90;;;;;;5070582;28;20219;-43
2022/03/31 06:30:47;;;;;;;1.30;0.87;;;6.40;41.80;;;;;;5067857;28;20559;-46
2022/03/31 06:33:17;;;;;;;1.43;1.03;;;6.50;42.00;;;;;;5067013;28;20248;-45
2022/03/31 06:35:44;;;;;;;2.03;0.97;;;6.60;41.90;;;;;;5068820;28;20714;-46
2022/03/31 06:38:12;;;;;;;2.00;1.10;;;6.60;41.80;;;;;;5070842;28;20200;-46
2022/03/31 06:40:41;;;;;;;1.20;1.10;;;6.70;41.30;;;;;;5069763;28;20212;-48
2022/03/31 06:43:09;;;;;;;2.80;0.80;;;6.70;41.10;;;;;;5070140;28;20205;-44
2022/03/31 06:45:36;;;;;;;1.87;0.90;;;6.70;41.20;;;;;;5070707;28;20201;-46
2022/03/31 06:48:06;;;;;;;0.70;0.70;;;6.70;41.20;;;;;;5069403;28;20189;-42
2022/03/31 06:50:36;;;;;;;1.40;0.80;;;6.80;41.10;;;;;;5058163;28;20649;-52
2022/03/31 06:53:03;;;;;;;1.63;1.00;;;6.80;41.00;;;;;;5070100;28;20196;-45
2022/03/31 06:55:30;;;;;;;3.00;1.47;;;6.80;40.60;;;;;;5054839;28;20293;-51
2022/03/31 06:57:57;;;;;;;1.63;1.33;;;6.80;40.50;;;;;;5064992;28;20197;-47
2022/03/31 07:00:25;;;;;;;2.67;1.13;;;6.80;40.50;;;;;;5070877;28;20642;-48
2022/03/31 07:02:52;;;;;;;1.10;0.97;;;6.80;40.80;;;;;;5068980;28;20728;-49
2022/03/31 07:05:19;;;;;;;2.00;1.10;;;6.90;41.00;;;;;;5068070;28;20612;-43
2022/03/31 07:07:48;;;;;;;1.17;0.80;;;7.00;41.10;;;;;;5070947;28;20372;-48
2022/03/31 07:10:15;;;;;;;4.67;1.60;;;7.10;41.10;;;;;;5069487;28;20204;-50
2022/03/31 07:12:42;;;;;;;1.73;1.20;;;7.30;41.10;;;;;;5064829;28;20205;-41
2022/03/31 07:15:10;;;;;;;2.43;1.67;;;7.30;40.90;;;;;;5070383;28;20256;-46
2022/03/31 07:17:37;;;;;;;3.13;1.67;;;7.30;40.90;;;;;;5058803;28;20197;-50
2022/03/31 07:20:05;;;;;;;2.23;1.17;;;7.40;40.50;;;;;;5070367;28;20217;-43
2022/03/31 07:22:33;;;;;;;1.90;1.33;;;7.40;40.50;;;;;;5070215;28;20206;-46
2022/03/31 07:25:02;;;;;;;3.20;1.10;;;7.50;40.70;;;;;;5070405;28;20233;-45
2022/03/31 07:27:29;;;;;;;2.37;1.40;;;7.50;40.50;;;;;;5070678;28;20218;-45
2022/03/31 07:29:57;;;;;;;1.20;1.10;;;7.60;40.40;;;;;;5070714;28;20272;-48
2022/03/31 07:32:25;;;;;;;1.17;1.00;;;7.60;40.50;;;;;;5069632;28;20270;-44
2022/03/31 07:34:52;;;;;;;2.53;1.17;;;7.70;40.70;;;;;;5068620;28;20213;-45
2022/03/31 07:37:19;;;;;;;0.80;0.80;;;7.80;40.80;;;;;;5070319;28;20307;-43
2022/03/31 07:39:46;;;;;;;3.23;1.23;;;8.00;40.80;;;;;;5068321;28;20321;-49
2022/03/31 07:42:16;;;;;;;2.57;1.13;;;8.00;40.70;;;;;;5056553;28;20207;-50
2022/03/31 07:44:43;;;;;;;3.80;1.20;;;8.10;40.80;;;;;;5060865;28;20573;-49
2022/03/31 07:47:11;;;;;;;2.33;1.30;;;8.10;40.90;;;;;;5065854;28;20781;-50
2022/03/31 07:49:38;;;;;;;5.03;1.10;;;8.10;40.40;;;;;;5057309;28;20612;-48
2022/03/31 07:52:05;;;;;;;2.77;1.20;;;8.20;40.50;;;;;;5066128;28;20571;-50
2022/03/31 07:54:32;;;;;;;1.50;0.90;;;8.30;40.20;;;;;;5067732;28;20579;-46
2022/03/31 07:57:00;;;;;;;1.73;1.00;;;8.30;39.80;;;;;;5065408;28;20205;-47
2022/03/31 07:59:33;;;;;;;2.80;1.07;;;8.40;39.90;;;;;;5061321;28;20300;-50
2022/03/31 08:02:00;;;;;;;1.57;1.00;;;8.50;39.90;;;;;;5060451;28;20737;-43
2022/03/31 08:04:28;;;;;;;2.10;0.70;;;8.50;39.00;;;;;;5060022;28;20193;-43
2022/03/31 08:06:56;;;;;;;1.17;1.00;;;8.60;38.90;;;;;;5066076;28;20193;-45
2022/03/31 08:09:23;;;;;;;4.20;1.20;;;8.60;38.60;;;;;;5064187;28;20267;-43
2022/03/31 08:11:51;;;;;;;0.70;0.70;;;8.70;38.90;;;;;;5063896;28;20223;-42
2022/03/31 08:14:19;;;;;;;1.13;1.00;;;8.90;38.90;;;;;;5065324;28;20315;-47
2022/03/31 08:16:48;;;;;;;0.80;0.80;;;9.00;38.40;;;;;;5068412;28;20205;-50
2022/03/31 08:19:16;;;;;;;1.57;0.90;;;9.00;38.40;;;;;;5064671;28;20196;-48
2022/03/31 08:21:44;;;;;;;2.67;1.00;;;9.20;38.80;;;;;;5068755;28;20216;-52
2022/03/31 08:24:11;;;;;;;1.70;0.90;;;9.30;38.40;;;;;;5067389;28;20193;-48
2022/03/31 08:26:38;;;;;;;5.13;1.20;;;9.30;38.10;;;;;;5069767;28;20197;-49
2022/03/31 08:29:05;;;;;;;1.57;1.47;;;9.30;38.40;;;;;;5068480;28;20219;-45
2022/03/31 08:31:33;;;;;;;1.30;1.20;;;9.40;37.90;;;;;;5068607;28;20197;-51
2022/03/31 08:34:01;;;;;;;1.50;1.10;;;9.50;37.80;;;;;;5060220;28;20278;-47
2022/03/31 08:36:29;;;;;;;2.90;1.00;;;9.60;38.30;;;;;;5065116;28;20199;-45
2022/03/31 08:38:56;;;;;;;1.43;1.03;;;9.70;37.60;;;;;;5066390;28;20197;-45
2022/03/31 08:41:26;;;;;;;2.87;1.10;;;9.90;37.70;;;;;;5066067;28;20220;-44
2022/03/31 08:43:53;;;;;;;4.00;1.23;;;10.00;36.90;;;;;;5062571;28;20206;-44
2022/03/31 08:46:23;;;;;;;1.40;1.30;;;10.10;36.40;;;;;;5059588;28;20224;-46
2022/03/31 08:48:50;;;;;;;1.57;1.10;;;10.10;36.00;;;;;;5062119;28;20548;-42
2022/03/31 08:51:19;;;;;;;2.93;1.10;;;10.10;36.10;;;;;;5064767;28;20201;-46
2022/03/31 08:53:46;;;;;;;1.23;1.10;;;10.20;36.60;;;;;;5057371;28;20662;-43
2022/03/31 08:56:13;;;;;;;1.40;1.30;;;10.20;36.70;;;;;;5062464;28;20729;-46
2022/03/31 08:58:44;;;;;;;2.40;1.27;;;10.40;36.80;;;;;;5063584;28;20191;-46
2022/03/31 09:01:13;;;;;;;1.40;1.30;;;10.40;35.90;;;;;;5054559;28;20209;-43
2022/03/31 09:03:40;;;;;;;6.43;1.40;;;10.40;35.60;;;;;;5058916;28;20183;-42
2022/03/31 09:06:08;;;;;;;1.50;1.30;;;10.40;35.70;;;;;;5065901;28;20687;-45
2022/03/31 09:08:37;;;;;;;2.43;1.40;;;10.50;36.30;;;;;;5067175;28;20200;-42
2022/03/31 09:11:04;;;;;;;2.10;1.40;;;10.50;36.50;;;;;;5064060;28;20661;-42
2022/03/31 09:13:35;;;;;;;3.67;1.53;;;10.50;36.70;;;;;;5071033;28;20194;-46
2022/03/31 09:16:04;;;;;;;6.20;1.80;;;10.60;36.90;;;;;;5071314;28;20197;-50
2022/03/31 09:18:34;;;;;;;3.63;1.90;;;10.80;37.00;;;;;;5070760;28;20660;-46
2022/03/31 09:21:03;;;;;;;3.10;2.10;;;10.80;36.70;;;;;;5071357;28;20285;-45
2022/03/31 09:23:32;;;;;;;3.57;2.20;;;10.90;36.50;;;;;;5069630;28;20209;-44
2022/03/31 09:26:06;;;;;;;4.00;2.43;;;11.00;36.80;;;;;;5072622;28;20204;-45
2022/03/31 09:28:33;;;;;;;2.20;1.90;;;11.20;36.90;;;;;;5070654;28;20203;-43
2022/03/31 09:31:00;;;;;;;1.77;1.67;;;11.30;37.00;;;;;;5066337;28;20653;-42
2022/03/31 09:33:29;;;;;;;2.67;2.13;;;11.50;36.80;;;;;;5064923;28;20562;-47
2022/03/31 09:35:58;;;;;;;2.20;1.73;;;11.60;36.60;;;;;;5070281;28;20191;-44
2022/03/31 09:38:25;;;;;;;2.17;1.57;;;11.70;37.00;;;;;;5072553;28;20207;-42
2022/03/31 09:40:53;;;;;;;1.70;1.60;;;12.00;37.00;;;;;;5068866;28;20624;-42
2022/03/31 09:43:22;;;;;;;1.60;1.37;;;12.10;36.50;;;;;;5071438;28;20237;-47
2022/03/31 09:45:49;;;;;;;1.53;1.43;;;12.40;36.60;;;;;;5067876;28;20669;-46
2022/03/31 09:48:21;;;;;;;3.13;1.60;;;12.60;35.90;;;;;;5069600;28;20595;-42
2022/03/31 09:50:49;;;;;;;2.63;2.27;;;12.70;35.90;;;;;;5070610;28;20283;-48
2022/03/31 09:53:17;;;;;;;4.27;2.03;;;12.80;35.50;;;;;;5071483;28;20287;-42
2022/03/31 09:55:45;;;;;;;1.60;1.50;;;12.60;35.10;;;;;;5071934;28;20709;-42
2022/03/31 09:58:18;;;;;;;1.73;1.63;;;12.60;35.30;;;;;;5071422;28;20208;-42
2022/03/31 10:00:46;;;;;;;6.57;1.97;;;12.70;35.30;;;;;;5057147;28;20235;-44
2022/03/31 10:03:17;;;;;;;1.70;1.60;;;12.80;34.40;;;;;;5052101;28;20197;-45
2022/03/31 10:05:45;;;;;;;1.40;1.30;;;12.80;33.90;;;;;;5048071;28;20255;-45
2022/03/31 10:08:13;;;;;;;1.67;1.57;;;12.90;34.10;;;;;;5057670;28;20660;-42
2022/03/31 10:10:41;;;;;;;1.90;1.57;;;13.10;34.10;;;;;;5071208;28;20193;-44
2022/03/31 10:13:16;;;;;;;3.20;2.50;;;13.10;34.00;;;;;;5069398;28;20210;-44
2022/03/31 10:15:46;;;;;;;3.63;2.50;;;13.20;32.70;;;;;;5070015;28;20329;-49
2022/03/31 10:18:15;;;;;;;3.30;2.30;;;13.00;32.00;;;;;;5061716;28;20608;-45
2022/03/31 10:20:56;;;;;;;2.33;2.20;;;12.70;32.20;;;;;;5069258;28;20209;-43
2022/03/31 10:26:25;;;;;;;2.60;2.40;;;12.80;33.20;;;;;;4977147;28;20202;-45
2022/03/31 10:28:56;;;;;;;3.23;2.33;;;12.90;33.30;;;;;;5057918;28;20216;-43
2022/03/31 10:31:35;;;;;;;5.17;2.40;;;13.00;33.00;;;;;;5070778;28;20197;-43
2022/03/31 10:34:03;;;;;;;5.03;3.37;;;12.90;32.80;;;;;;5068319;28;20201;-45
2022/03/31 10:36:39;;;;;;;4.60;2.43;;;12.90;32.80;;;;;;5070291;28;20198;-45
2022/03/31 10:39:08;;;;;;;8.33;2.13;;;12.80;32.20;;;;;;5069830;28;20238;-44
2022/03/31 10:41:37;;;;;;;6.53;2.50;;;12.70;31.20;;;;;;5062402;28;20215;-45
2022/03/31 10:44:15;;;;;;;3.33;2.50;;;12.70;31.50;;;;;;5062036;28;20292;-56
2022/03/31 10:46:46;;;;;;;2.10;2.00;;;12.70;31.60;;;;;;5067735;28;20238;-48
2022/03/31 10:49:19;;;;;;;4.60;2.30;;;12.70;31.70;;;;;;5070048;28;20207;-50
2022/03/31 10:51:47;;;;;;;2.10;1.93;;;12.60;30.50;;;;;;5070877;28;20277;-49
2022/03/31 10:54:25;;;;;;;1.87;1.73;;;12.60;30.00;;;;;;5070624;28;20211;-49
2022/03/31 10:57:08;;;;;;;1.90;1.80;;;12.50;30.40;;;;;;5070575;28;20210;-45
2022/03/31 10:59:37;;;;;;;2.97;2.27;;;12.60;31.00;;;;;;5068333;28;20573;-44
2022/03/31 11:02:14;;;;;;;3.03;2.07;;;12.80;30.90;;;;;;5068913;28;20584;-46
2022/03/31 11:04:49;;;;;;;6.30;2.43;;;12.90;30.70;;;;;;5066373;28;20268;-44
2022/03/31 11:07:19;;;;;;;2.13;1.97;;;12.90;29.90;;;;;;5070520;28;20288;-49
2022/03/31 11:09:46;;;;;;;3.77;2.07;;;12.80;29.10;;;;;;5069949;28;20669;-49
2022/03/31 11:12:33;;;;;;;5.60;2.37;;;12.90;29.60;;;;;;5065682;28;20202;-46
2022/03/31 11:15:02;;;;;;;3.63;2.20;;;13.00;29.70;;;;;;5064989;28;20245;-47
2022/03/31 11:17:31;;;;;;;2.90;2.33;;;13.00;29.60;;;;;;5056090;28;20691;-49
2022/03/31 11:20:03;;;;;;;3.47;1.83;;;13.00;29.60;;;;;;5060536;28;20193;-45
2022/03/31 11:22:31;;;;;;;2.50;2.13;;;13.10;29.90;;;;;;5062586;28;20210;-48
2022/03/31 11:25:08;;;;;;;2.17;1.70;;;13.00;29.00;;;;;;5070621;28;20619;-45
2022/03/31 11:27:37;;;;;;;3.97;1.70;;;13.10;29.60;;;;;;5070062;28;20195;-49
2022/03/31 11:30:07;;;;;;;1.70;1.60;;;13.40;30.00;;;;;;5061096;28;20418;-45
2022/03/31 11:32:37;;;;;;;1.77;1.50;;;13.40;29.10;;;;;;5067407;28;20397;-51
2022/03/31 11:35:09;;;;;;;2.40;1.50;;;13.50;29.40;;;;;;5062246;28;20197;-47
2022/03/31 11:37:41;;;;;;;3.53;2.17;;;13.60;29.60;;;;;;5070429;28;20193;-43
2022/03/31 11:40:13;;;;;;;3.27;1.97;;;13.60;29.60;;;;;;5069075;28;20189;-48
2022/03/31 11:42:45;;;;;;;2.43;1.93;;;13.40;29.20;;;;;;5063524;28;20607;-48
2022/03/31 11:45:22;;;;;;;4.63;2.00;;;13.40;29.60;;;;;;5068497;28;20287;-47
2022/03/31 11:47:57;;;;;;;2.77;1.90;;;13.40;29.30;;;;;;5066223;28;20622;-45
2022/03/31 11:50:24;;;;;;;1.60;1.50;;;13.40;29.10;;;;;;5067053;28;20204;-44
2022/03/31 11:52:52;;;;;;;2.43;1.60;;;13.40;29.30;;;;;;5070283;28;20198;-47
2022/03/31 11:55:21;;;;;;;1.70;1.60;;;13.50;29.40;;;;;;5069201;28;20247;-47
2022/03/31 11:57:52;;;;;;;1.60;1.50;;;13.50;29.10;;;;;;5067138;28;20216;-42
2022/03/31 12:00:21;;;;;;;3.87;1.27;;;13.60;29.30;;;;;;5065621;28;20204;-47
2022/03/31 12:03:04;;;;;;;1.43;1.33;;;13.80;29.20;;;;;;5068289;28;20329;-43
2022/03/31 12:05:31;;;;;;;1.40;1.30;;;13.60;28.30;;;;;;5058733;28;20193;-49
2022/03/31 12:08:00;;;;;;;1.60;1.50;;;13.50;28.60;;;;;;5062253;28;20194;-47
2022/03/31 12:10:29;;;;;;;1.40;1.30;;;13.50;28.70;;;;;;5067596;28;20210;-46
2022/03/31 12:12:57;;;;;;;2.90;1.30;;;13.50;28.60;;;;;;5065924;28;20201;-43
2022/03/31 12:15:26;;;;;;;1.30;1.20;;;13.50;28.70;;;;;;5067677;28;20740;-46
2022/03/31 12:18:06;;;;;;;1.37;1.03;;;13.60;28.50;;;;;;5058287;28;20198;-45
2022/03/31 12:20:35;;;;;;;1.93;1.63;;;13.60;28.50;;;;;;5068257;28;20195;-47
2022/03/31 12:23:16;;;;;;;1.53;1.43;;;13.60;28.10;;;;;;5064639;28;20705;-46
2022/03/31 12:25:43;;;;;;;5.50;1.27;;;13.50;28.20;;;;;;5067235;28;20231;-49
2022/03/31 12:28:10;;;;;;;2.83;1.83;;;13.50;28.00;;;;;;5068354;28;20540;-46
2022/03/31 12:30:46;;;;;;;3.07;1.70;;;13.30;27.30;;;;;;5066995;28;20197;-47
2022/03/31 12:33:20;;;;;;;3.07;1.40;;;13.10;27.50;;;;;;5066013;28;20572;-45
2022/03/31 12:35:57;;;;;;;1.60;1.50;;;13.00;27.90;;;;;;5065497;28;20227;-47
2022/03/31 12:38:43;;;;;;;1.53;1.40;;;13.10;27.90;;;;;;5056753;28;20185;-43
2022/03/31 12:41:18;;;;;;;3.10;1.77;;;13.10;27.90;;;;;;5063473;28;20647;-44
2022/03/31 12:44:00;;;;;;;1.87;1.60;;;13.10;27.60;;;;;;5065837;28;20224;-42
2022/03/31 12:46:30;;;;;;;1.30;1.20;;;13.10;27.70;;;;;;5068483;28;20225;-51
2022/03/31 12:49:03;;;;;;;1.50;1.40;;;13.10;28.00;;;;;;5064816;28;20258;-45
2022/03/31 12:51:41;;;;;;;1.53;1.30;;;13.10;28.10;;;;;;5067680;28;20190;-48
2022/03/31 12:54:19;;;;;;;1.73;1.13;;;13.20;28.30;;;;;;5058699;28;20202;-43
2022/03/31 12:56:48;;;;;;;1.23;1.13;;;13.50;28.40;;;;;;5067277;28;20213;-45
2022/03/31 12:59:18;;;;;;;2.73;1.50;;;14.50;28.20;;;;;;5069238;28;20198;-50
2022/03/31 13:01:55;;;;;;;2.63;1.30;;;15.60;26.60;;;;;;5066720;28;20218;-43
2022/03/31 13:04:24;;;;;;;1.93;1.30;;;16.20;26.20;;;;;;5056348;28;20211;-46
2022/03/31 13:06:51;;;;;;;1.67;1.30;;;16.00;25.90;;;;;;5068806;28;20269;-50